Time;durP1;ratioP1;P1;durP2;ratioP2;P2;SDS_P1;SDS_P2;PMS_P1;PMS_P2;Temp;Humidity;BMP_temperature;BMP_pressure;BME280_temperature;BME280_humidity;BME280_pressure;Samples;Min_cycle;Max_cycle;Signal;HPM_P1;HPM_P2
2022/07/05 00:00:51;;;;;;;0.83;0.70;;;25.80;62.60;;;;;;5083004;28;20456;-65
2022/07/05 00:03:23;;;;;;;1.37;1.10;;;25.90;62.00;;;;;;5085119;28;20867;-65
2022/07/05 00:05:54;;;;;;;1.63;0.97;;;25.90;59.80;;;;;;5122076;28;20510;-65
2022/07/05 00:08:25;;;;;;;1.00;0.90;;;25.70;61.50;;;;;;5123081;28;20441;-63
2022/07/05 00:10:55;;;;;;;0.70;0.70;;;25.70;64.80;;;;;;5112132;28;20484;-65
2022/07/05 00:13:26;;;;;;;1.37;1.27;;;25.70;65.40;;;;;;5123479;28;20492;-65
2022/07/05 00:15:59;;;;;;;0.70;0.70;;;25.70;65.90;;;;;;5123033;28;20457;-65
2022/07/05 00:18:30;;;;;;;0.87;0.87;;;25.80;65.70;;;;;;5123160;28;20466;-65
2022/07/05 00:21:00;;;;;;;0.73;0.70;;;25.80;63.80;;;;;;5121858;28;20446;-65
2022/07/05 00:23:31;;;;;;;0.90;0.80;;;25.70;63.50;;;;;;5123792;28;20445;-63
2022/07/05 00:26:02;;;;;;;0.87;0.87;;;25.60;62.90;;;;;;5090608;28;20440;-65
2022/07/05 00:28:33;;;;;;;1.00;0.90;;;25.60;65.10;;;;;;5122833;28;20575;-65
2022/07/05 00:31:05;;;;;;;0.90;0.87;;;25.70;62.40;;;;;;5122516;28;20497;-65
2022/07/05 00:33:36;;;;;;;0.80;0.80;;;25.70;63.30;;;;;;5123191;28;20602;-65
2022/07/05 00:36:07;;;;;;;0.80;0.80;;;25.60;64.50;;;;;;5089588;28;20454;-65
2022/07/05 00:38:38;;;;;;;1.30;1.20;;;25.80;63.50;;;;;;5122736;28;20458;-64
2022/07/05 00:41:09;;;;;;;1.17;1.10;;;25.70;65.50;;;;;;5122315;28;20452;-64
2022/07/05 00:43:52;;;;;;;1.30;1.20;;;25.70;67.10;;;;;;5122866;28;20454;-64
2022/07/05 00:46:25;;;;;;;1.70;1.20;;;25.70;65.80;;;;;;5122779;28;20451;-63
2022/07/05 00:48:56;;;;;;;1.63;1.53;;;25.50;67.80;;;;;;5122724;28;20534;-63
2022/07/05 00:51:28;;;;;;;1.03;0.63;;;25.60;68.30;;;;;;5121354;28;20487;-63
2022/07/05 00:54:00;;;;;;;1.60;1.10;;;25.50;67.30;;;;;;5122738;28;20450;-64
2022/07/05 00:56:30;;;;;;;1.27;1.17;;;25.50;66.80;;;;;;5123214;28;20440;-64
2022/07/05 00:59:01;;;;;;;0.90;0.90;;;25.50;66.30;;;;;;5113683;28;21081;-63
2022/07/05 01:01:34;;;;;;;0.70;0.70;;;25.50;65.10;;;;;;5119367;28;20462;-64
2022/07/05 01:04:05;;;;;;;1.37;1.20;;;25.50;65.50;;;;;;5122448;28;20523;-64
2022/07/05 01:06:45;;;;;;;1.50;1.20;;;25.50;67.10;;;;;;5121581;28;20460;-64
2022/07/05 01:09:18;;;;;;;1.03;1.03;;;25.60;66.50;;;;;;5122398;28;20445;-64
2022/07/05 01:11:49;;;;;;;1.40;1.30;;;25.50;67.10;;;;;;5122452;28;20772;-64
2022/07/05 01:14:21;;;;;;;1.23;1.13;;;25.50;66.40;;;;;;5122414;28;20452;-64
2022/07/05 01:16:55;;;;;;;1.30;1.20;;;25.40;68.30;;;;;;5089788;28;20450;-64
2022/07/05 01:19:27;;;;;;;1.60;1.50;;;25.30;69.30;;;;;;5122567;28;20458;-64
2022/07/05 01:22:03;;;;;;;1.23;1.13;;;25.20;69.70;;;;;;5120918;28;20455;-64
2022/07/05 01:24:36;;;;;;;1.40;1.10;;;25.00;70.40;;;;;;5122314;28;20476;-64
2022/07/05 01:27:08;;;;;;;1.93;1.40;;;25.00;73.30;;;;;;5122471;28;20452;-64
2022/07/05 01:29:39;;;;;;;3.23;2.53;;;24.90;73.90;;;;;;5122069;28;20459;-63
2022/07/05 01:32:10;;;;;;;1.57;1.47;;;24.80;73.20;;;;;;5122077;28;20485;-64
2022/07/05 01:34:41;;;;;;;1.60;1.50;;;24.80;74.00;;;;;;5122186;28;20457;-64
2022/07/05 01:37:13;;;;;;;1.40;1.30;;;24.90;74.30;;;;;;5121129;28;20450;-64
2022/07/05 01:39:46;;;;;;;1.27;1.17;;;24.80;72.50;;;;;;5121914;28;20445;-64
2022/07/05 01:42:18;;;;;;;1.50;1.40;;;24.80;72.70;;;;;;5122213;28;20627;-64
2022/07/05 01:44:49;;;;;;;2.27;1.50;;;24.70;72.80;;;;;;5122154;28;20458;-64
2022/07/05 01:47:21;;;;;;;1.80;1.70;;;24.70;72.20;;;;;;5119602;28;20445;-63
2022/07/05 01:49:55;;;;;;;3.90;2.03;;;24.70;73.50;;;;;;5101662;28;20796;-64
2022/07/05 01:52:29;;;;;;;1.90;1.80;;;24.70;74.20;;;;;;5093228;28;20520;-64
2022/07/05 01:55:02;;;;;;;1.93;1.83;;;24.60;73.10;;;;;;5125538;28;20440;-64
2022/07/05 01:57:33;;;;;;;1.37;1.27;;;24.60;74.20;;;;;;5126615;28;20761;-64
2022/07/05 02:00:04;;;;;;;1.70;1.50;;;24.60;74.20;;;;;;5125356;28;20541;-64
2022/07/05 02:02:36;;;;;;;1.40;1.30;;;24.60;73.00;;;;;;5119284;28;20451;-64
2022/07/05 02:05:07;;;;;;;1.13;1.03;;;24.50;74.30;;;;;;5124553;28;20450;-64
2022/07/05 02:07:37;;;;;;;1.37;1.30;;;24.50;73.60;;;;;;5126151;27;20940;-64
2022/07/05 02:10:10;;;;;;;0.80;0.80;;;24.40;73.70;;;;;;5125245;28;20442;-64
2022/07/05 02:12:41;;;;;;;1.40;1.30;;;24.30;74.00;;;;;;5126014;28;20579;-63
2022/07/05 02:15:12;;;;;;;1.40;1.30;;;24.30;73.50;;;;;;5125464;28;20529;-65
2022/07/05 02:17:43;;;;;;;2.33;2.10;;;24.30;74.20;;;;;;5125965;28;20456;-65
2022/07/05 02:20:14;;;;;;;2.00;1.80;;;24.30;75.40;;;;;;5124647;28;20906;-65
2022/07/05 02:22:45;;;;;;;1.43;1.33;;;24.20;75.20;;;;;;5125725;28;20453;-64
2022/07/05 02:25:17;;;;;;;1.73;1.63;;;24.20;75.00;;;;;;5123005;28;20438;-65
2022/07/05 02:27:49;;;;;;;1.70;1.60;;;24.20;75.20;;;;;;5126294;28;20453;-64
2022/07/05 02:30:20;;;;;;;1.40;1.30;;;24.20;73.60;;;;;;5125025;28;20909;-64
2022/07/05 02:32:51;;;;;;;1.00;1.00;;;24.00;73.10;;;;;;5125164;28;20495;-64
2022/07/05 02:35:22;;;;;;;1.50;1.40;;;24.00;74.70;;;;;;5124484;28;20863;-65
2022/07/05 02:37:53;;;;;;;1.30;1.20;;;23.90;77.00;;;;;;5117856;28;20464;-65
2022/07/05 02:40:25;;;;;;;1.47;1.30;;;23.80;76.00;;;;;;5125189;28;20520;-64
2022/07/05 02:42:57;;;;;;;1.40;1.30;;;23.80;76.20;;;;;;5125874;28;20449;-62
2022/07/05 02:45:28;;;;;;;1.50;1.40;;;23.80;77.60;;;;;;5124552;28;20446;-65
2022/07/05 02:47:59;;;;;;;1.27;1.17;;;23.70;77.20;;;;;;5124141;27;20919;-64
2022/07/05 02:50:31;;;;;;;1.40;1.30;;;23.60;77.00;;;;;;5123793;28;20446;-65
2022/07/05 02:53:01;;;;;;;1.00;1.00;;;23.60;76.90;;;;;;5124903;28;20500;-65
2022/07/05 02:55:34;;;;;;;2.40;2.20;;;23.50;78.20;;;;;;5124696;28;20438;-65
2022/07/05 02:58:04;;;;;;;1.40;1.27;;;23.40;78.40;;;;;;5124884;28;20481;-64
2022/07/05 03:00:35;;;;;;;0.97;0.97;;;23.30;79.30;;;;;;5124631;28;20472;-65
2022/07/05 03:03:06;;;;;;;1.60;1.50;;;23.30;78.60;;;;;;5124772;28;20556;-65
2022/07/05 03:05:37;;;;;;;1.50;1.40;;;23.20;78.10;;;;;;5123340;28;20785;-64
2022/07/05 03:08:08;;;;;;;1.43;1.33;;;23.10;78.00;;;;;;5124810;28;20437;-64
2022/07/05 03:10:40;;;;;;;2.20;2.00;;;23.10;77.10;;;;;;5117082;28;20454;-64
2022/07/05 03:13:11;;;;;;;2.17;1.97;;;22.90;79.20;;;;;;5124198;28;20481;-64
2022/07/05 03:15:42;;;;;;;2.77;2.40;;;22.90;78.90;;;;;;5124176;28;20515;-65
2022/07/05 03:18:13;;;;;;;2.20;2.00;;;22.80;78.70;;;;;;5124926;28;20763;-64
2022/07/05 03:20:44;;;;;;;3.90;3.40;;;22.80;80.00;;;;;;5123511;28;20446;-65
2022/07/05 03:23:14;;;;;;;2.60;2.07;;;22.70;79.40;;;;;;5124990;28;20773;-65
2022/07/05 03:25:47;;;;;;;2.27;1.90;;;22.70;78.30;;;;;;5124248;28;20446;-64
2022/07/05 03:28:18;;;;;;;1.60;1.50;;;22.60;79.40;;;;;;5094014;28;20506;-64
2022/07/05 03:30:49;;;;;;;1.47;1.37;;;22.50;80.10;;;;;;5123326;28;20453;-64
2022/07/05 03:33:19;;;;;;;1.50;1.30;;;22.40;80.10;;;;;;5124560;28;20492;-65
2022/07/05 03:35:53;;;;;;;2.30;2.10;;;22.30;80.30;;;;;;5123158;28;20510;-65
2022/07/05 03:38:24;;;;;;;3.00;2.57;;;22.30;80.10;;;;;;5124407;28;20442;-65
2022/07/05 03:40:56;;;;;;;2.23;2.00;;;22.20;81.20;;;;;;5124083;28;20450;-64
2022/07/05 03:43:30;;;;;;;2.90;2.60;;;22.20;81.60;;;;;;5124741;27;20475;-64
2022/07/05 03:46:01;;;;;;;2.93;2.63;;;22.10;82.40;;;;;;5123993;28;20453;-64
2022/07/05 03:48:31;;;;;;;3.87;2.70;;;22.10;81.20;;;;;;5120322;28;20453;-65
2022/07/05 03:51:10;;;;;;;2.63;2.43;;;21.90;83.00;;;;;;5122958;28;20433;-64
2022/07/05 03:53:41;;;;;;;2.50;2.30;;;21.80;81.90;;;;;;5124038;28;20507;-64
2022/07/05 03:56:19;;;;;;;2.67;2.20;;;21.70;82.90;;;;;;5124267;28;20461;-64
2022/07/05 03:58:50;;;;;;;2.40;2.20;;;21.60;83.40;;;;;;5123856;28;20482;-65
2022/07/05 04:01:21;;;;;;;2.40;2.20;;;21.50;86.40;;;;;;5123399;28;20449;-65
2022/07/05 04:03:52;;;;;;;1.90;1.80;;;21.40;85.60;;;;;;5123875;28;20462;-64
2022/07/05 04:06:23;;;;;;;1.93;1.83;;;21.30;85.30;;;;;;5122158;28;20450;-64
2022/07/05 04:08:54;;;;;;;2.50;1.70;;;21.20;85.80;;;;;;5119838;28;20791;-64
2022/07/05 04:11:26;;;;;;;1.93;1.83;;;21.10;86.70;;;;;;5117780;28;20567;-64
2022/07/05 04:13:57;;;;;;;1.60;1.50;;;21.10;88.10;;;;;;5122797;28;20496;-64
2022/07/05 04:16:27;;;;;;;2.20;2.07;;;21.00;87.00;;;;;;5121938;28;20458;-65
2022/07/05 04:18:58;;;;;;;2.30;2.10;;;20.90;87.80;;;;;;5123635;28;20445;-65
2022/07/05 04:21:29;;;;;;;2.03;1.83;;;20.90;88.00;;;;;;5121870;28;20484;-65
2022/07/05 04:24:00;;;;;;;2.97;2.70;;;20.80;89.20;;;;;;5123420;28;20450;-65
2022/07/05 04:26:32;;;;;;;4.17;3.73;;;20.80;89.70;;;;;;5123466;28;20445;-64
2022/07/05 04:29:03;;;;;;;6.10;4.60;;;20.70;88.80;;;;;;5122642;28;20455;-64
2022/07/05 04:31:34;;;;;;;5.67;4.87;;;20.70;89.10;;;;;;5122399;28;20492;-64
2022/07/05 04:34:05;;;;;;;5.60;4.57;;;20.60;89.40;;;;;;5123018;28;20477;-65
2022/07/05 04:36:36;;;;;;;6.27;4.50;;;20.60;90.10;;;;;;5122243;28;20424;-64
2022/07/05 04:39:07;;;;;;;4.90;4.50;;;20.50;91.10;;;;;;5123175;28;20413;-64
2022/07/05 04:41:40;;;;;;;7.90;5.93;;;20.50;91.80;;;;;;5122488;28;20448;-64
2022/07/05 04:44:11;;;;;;;5.80;5.30;;;20.40;91.50;;;;;;5122807;28;20435;-64
2022/07/05 04:46:43;;;;;;;15.27;13.30;;;20.50;90.60;;;;;;5122674;28;20420;-64
2022/07/05 04:49:14;;;;;;;8.47;7.67;;;20.40;90.80;;;;;;5120750;28;20843;-64
2022/07/05 04:51:45;;;;;;;6.67;6.07;;;20.40;90.70;;;;;;5120828;28;20477;-65
2022/07/05 04:54:16;;;;;;;7.60;6.83;;;20.50;90.80;;;;;;5122930;28;20497;-65
2022/07/05 04:56:48;;;;;;;7.40;5.57;;;20.60;90.60;;;;;;5122557;28;20461;-64
2022/07/05 04:59:19;;;;;;;6.10;5.50;;;20.60;90.60;;;;;;5123059;28;20473;-64
2022/07/05 05:01:55;;;;;;;6.60;5.53;;;20.50;91.00;;;;;;5121777;28;20515;-64
2022/07/05 05:04:26;;;;;;;6.37;5.60;;;20.40;91.30;;;;;;5122852;28;20542;-64
2022/07/05 05:06:56;;;;;;;5.23;4.67;;;20.40;91.60;;;;;;5121547;28;20466;-65
2022/07/05 05:09:27;;;;;;;5.40;4.73;;;20.30;92.00;;;;;;5123129;28;20519;-64
2022/07/05 05:12:00;;;;;;;6.03;5.10;;;20.30;92.20;;;;;;5121669;28;20453;-64
2022/07/05 05:14:31;;;;;;;4.73;4.17;;;20.30;92.20;;;;;;5116715;28;20481;-64
2022/07/05 05:17:01;;;;;;;5.07;4.57;;;20.20;92.50;;;;;;5122295;28;20459;-65
2022/07/05 05:19:32;;;;;;;4.40;4.03;;;20.10;92.60;;;;;;5122384;28;20424;-64
2022/07/05 05:22:03;;;;;;;4.40;4.00;;;20.00;92.90;;;;;;5120660;28;20452;-64
2022/07/05 05:24:34;;;;;;;3.90;3.57;;;20.00;93.20;;;;;;5122699;28;20437;-65
2022/07/05 05:27:07;;;;;;;3.50;3.20;;;19.90;93.60;;;;;;5126292;28;20446;-64
2022/07/05 05:29:38;;;;;;;5.30;3.73;;;19.90;93.70;;;;;;5126772;28;20468;-64
2022/07/05 05:32:09;;;;;;;4.17;3.83;;;19.80;94.10;;;;;;5125685;28;20445;-64
2022/07/05 05:34:40;;;;;;;6.90;4.23;;;19.70;94.40;;;;;;5126037;28;20492;-64
2022/07/05 05:37:10;;;;;;;4.50;4.10;;;19.70;94.90;;;;;;5125185;28;20444;-64
2022/07/05 05:39:41;;;;;;;5.23;4.63;;;19.60;95.30;;;;;;5126851;28;20492;-64
2022/07/05 05:42:14;;;;;;;4.63;4.30;;;19.50;96.10;;;;;;5125722;28;20436;-64
2022/07/05 05:44:45;;;;;;;4.70;4.30;;;19.50;96.00;;;;;;5126022;28;20479;-64
2022/07/05 05:47:16;;;;;;;5.60;4.53;;;19.40;95.80;;;;;;5126351;28;20436;-64
2022/07/05 05:49:47;;;;;;;5.50;4.93;;;19.30;96.20;;;;;;5126180;27;20458;-64
2022/07/05 05:52:18;;;;;;;5.87;5.23;;;19.30;96.10;;;;;;5124343;28;20890;-64
2022/07/05 05:54:48;;;;;;;5.07;4.30;;;19.30;96.40;;;;;;5126125;28;20474;-64
2022/07/05 05:57:21;;;;;;;5.23;4.73;;;19.30;96.10;;;;;;5126154;28;20436;-64
2022/07/05 05:59:52;;;;;;;5.33;4.83;;;19.30;96.30;;;;;;5125882;28;20454;-64
2022/07/05 06:02:22;;;;;;;4.33;3.93;;;19.30;96.40;;;;;;5125251;28;20421;-64
2022/07/05 06:04:56;;;;;;;4.57;4.13;;;19.30;96.20;;;;;;5125690;28;20920;-64
2022/07/05 06:07:27;;;;;;;4.60;4.20;;;19.30;96.40;;;;;;5125505;28;20441;-65
2022/07/05 06:09:57;;;;;;;4.80;4.30;;;19.30;96.50;;;;;;5116682;28;20472;-64
2022/07/05 06:12:30;;;;;;;3.97;3.57;;;19.30;97.00;;;;;;5125676;28;20456;-64
2022/07/05 06:15:01;;;;;;;4.27;3.70;;;19.20;97.20;;;;;;5124076;27;20460;-64
2022/07/05 06:17:38;;;;;;;3.30;2.77;;;19.10;97.70;;;;;;5125589;28;20473;-64
2022/07/05 06:20:10;;;;;;;5.20;3.87;;;19.10;97.80;;;;;;5124620;28;20785;-64
2022/07/05 06:22:42;;;;;;;4.80;4.27;;;19.00;98.50;;;;;;5125748;28;20413;-65
2022/07/05 06:25:13;;;;;;;4.30;3.70;;;19.00;98.80;;;;;;5125516;28;20529;-64
2022/07/05 06:27:56;;;;;;;6.00;4.53;;;18.90;99.20;;;;;;5125322;28;20463;-64
2022/07/05 06:30:28;;;;;;;5.03;4.53;;;18.80;99.70;;;;;;5124646;28;20447;-64
2022/07/05 06:32:59;;;;;;;4.97;4.50;;;18.80;99.90;;;;;;5124701;28;20454;-64
2022/07/05 06:35:31;;;;;;;5.73;5.13;;;18.80;99.90;;;;;;5124365;28;20484;-65
2022/07/05 06:38:04;;;;;;;4.73;4.27;;;18.80;99.90;;;;;;5124396;28;21326;-64
2022/07/05 06:40:34;;;;;;;5.83;4.97;;;18.70;99.90;;;;;;5125732;28;20907;-64
2022/07/05 06:43:07;;;;;;;5.87;5.27;;;18.60;99.90;;;;;;5125288;28;20553;-64
2022/07/05 06:45:39;;;;;;;7.57;4.90;;;18.70;99.90;;;;;;5124866;28;20450;-64
2022/07/05 06:48:11;;;;;;;6.80;5.63;;;18.60;99.90;;;;;;5112092;28;20459;-64
2022/07/05 06:50:43;;;;;;;5.90;5.37;;;18.50;99.90;;;;;;5124150;28;20427;-64
2022/07/05 06:53:15;;;;;;;6.30;5.70;;;18.50;99.90;;;;;;5124761;28;20508;-64
2022/07/05 06:55:46;;;;;;;5.40;4.90;;;18.40;99.90;;;;;;5125096;28;20416;-64
2022/07/05 06:58:26;;;;;;;5.20;4.70;;;18.40;99.90;;;;;;5104777;28;20477;-64
2022/07/05 07:00:57;;;;;;;6.00;5.33;;;18.30;99.90;;;;;;5124815;28;20443;-64
2022/07/05 07:03:48;;;;;;;5.77;5.17;;;18.30;99.90;;;;;;5120245;28;20417;-64
2022/07/05 07:06:39;;;;;;;5.07;4.57;;;18.20;99.90;;;;;;5095517;28;20783;-64
2022/07/05 07:09:18;;;;;;;4.80;4.30;;;18.20;99.90;;;;;;5124971;28;20450;-64
2022/07/05 07:11:50;;;;;;;4.27;3.87;;;18.20;99.90;;;;;;5124339;28;20420;-64
2022/07/05 07:14:22;;;;;;;4.70;3.57;;;18.20;99.90;;;;;;5124498;28;20491;-64
2022/07/05 07:16:54;;;;;;;4.00;3.67;;;18.10;99.90;;;;;;5124444;28;20430;-64
2022/07/05 07:19:25;;;;;;;3.50;3.10;;;18.00;99.90;;;;;;5123726;28;20446;-64
2022/07/05 07:21:56;;;;;;;3.67;3.10;;;18.00;99.90;;;;;;5123338;27;20434;-64
2022/07/05 07:24:26;;;;;;;3.60;3.00;;;18.00;99.90;;;;;;5123954;28;20439;-64
2022/07/05 07:27:07;;;;;;;4.13;3.80;;;18.00;99.90;;;;;;5124276;28;20484;-64
2022/07/05 07:29:41;;;;;;;5.03;4.23;;;18.00;99.90;;;;;;5124357;27;20758;-64
2022/07/05 07:32:12;;;;;;;4.40;3.30;;;18.00;99.90;;;;;;5123956;28;20448;-64
2022/07/05 07:34:43;;;;;;;4.20;2.90;;;17.90;99.90;;;;;;5123565;28;20577;-64
2022/07/05 07:37:14;;;;;;;6.30;3.13;;;17.80;99.90;;;;;;5112230;28;20459;-63
2022/07/05 07:39:45;;;;;;;3.33;2.97;;;17.90;99.90;;;;;;5123935;28;20442;-64
2022/07/05 07:42:16;;;;;;;7.03;4.80;;;17.80;99.90;;;;;;5123846;28;20945;-64
2022/07/05 07:44:48;;;;;;;4.13;3.70;;;17.70;99.90;;;;;;5124253;27;20432;-64
2022/07/05 07:47:19;;;;;;;4.80;3.90;;;17.70;99.90;;;;;;5123043;28;20797;-64
2022/07/05 07:49:50;;;;;;;5.60;4.23;;;17.70;99.90;;;;;;5116974;28;20533;-64
2022/07/05 07:52:20;;;;;;;4.17;3.70;;;17.60;99.90;;;;;;5122420;28;20531;-64
2022/07/05 07:54:51;;;;;;;3.60;2.97;;;17.60;99.90;;;;;;5123597;28;20464;-64
2022/07/05 07:57:22;;;;;;;3.33;2.60;;;17.70;99.90;;;;;;5119890;28;20451;-64
2022/07/05 07:59:54;;;;;;;2.60;2.10;;;17.60;99.90;;;;;;5103751;28;20405;-64
2022/07/05 08:02:25;;;;;;;2.10;1.90;;;17.70;99.90;;;;;;5103680;28;20433;-64
2022/07/05 08:04:57;;;;;;;2.40;1.80;;;17.80;99.90;;;;;;5104289;28;20424;-64
2022/07/05 08:07:28;;;;;;;5.63;2.20;;;17.80;99.90;;;;;;5123292;28;20453;-64
2022/07/05 08:09:59;;;;;;;2.40;2.13;;;17.70;99.90;;;;;;5092777;28;20469;-64
2022/07/05 08:12:30;;;;;;;2.60;2.40;;;17.70;99.90;;;;;;5123295;28;20450;-64
2022/07/05 08:15:02;;;;;;;2.23;1.80;;;17.60;99.90;;;;;;5107146;28;20456;-64
2022/07/05 08:17:33;;;;;;;2.67;2.43;;;17.60;99.90;;;;;;5123380;28;20453;-64
2022/07/05 08:22:51;;;;;;;2.40;2.20;;;17.50;99.90;;;;;;5123480;28;20482;-64
2022/07/05 08:25:22;;;;;;;2.53;2.33;;;17.40;99.90;;;;;;5122956;28;20460;-64
2022/07/05 08:27:53;;;;;;;2.13;1.93;;;17.30;99.90;;;;;;5114361;28;20424;-64
2022/07/05 08:30:25;;;;;;;3.07;2.80;;;17.30;99.90;;;;;;5122589;28;20445;-64
2022/07/05 08:32:56;;;;;;;3.17;2.87;;;17.30;99.90;;;;;;5123639;28;20449;-64
2022/07/05 08:35:27;;;;;;;3.80;2.87;;;17.20;99.90;;;;;;5121403;28;20470;-64
2022/07/05 08:37:59;;;;;;;2.47;2.27;;;17.20;99.90;;;;;;5122953;28;20445;-64
2022/07/05 08:40:34;;;;;;;2.60;2.40;;;17.10;99.90;;;;;;5122705;28;20434;-64
2022/07/05 08:43:07;;;;;;;2.83;2.60;;;17.10;99.90;;;;;;5122948;28;20449;-64
2022/07/05 08:45:41;;;;;;;4.73;2.50;;;17.10;99.90;;;;;;5122350;28;20437;-65
2022/07/05 08:48:12;;;;;;;3.40;2.70;;;17.10;99.90;;;;;;5123221;28;20453;-64
2022/07/05 08:50:43;;;;;;;4.20;2.90;;;17.10;99.90;;;;;;5121977;28;20772;-64
2022/07/05 08:53:16;;;;;;;4.60;2.83;;;17.10;99.90;;;;;;5122906;28;20489;-64
2022/07/05 08:55:47;;;;;;;3.47;3.00;;;17.10;99.90;;;;;;5122247;28;20535;-64
2022/07/05 08:58:18;;;;;;;3.43;3.13;;;17.10;99.90;;;;;;5122365;28;20445;-64
2022/07/05 09:00:50;;;;;;;3.10;2.80;;;17.20;99.90;;;;;;5121960;28;20430;-64
2022/07/05 09:03:25;;;;;;;3.80;2.83;;;17.30;99.90;;;;;;5122964;28;20442;-64
2022/07/05 09:05:58;;;;;;;3.40;3.00;;;17.30;99.90;;;;;;5121063;28;20448;-64
2022/07/05 09:08:33;;;;;;;3.47;2.90;;;17.40;99.90;;;;;;5122597;28;20454;-64
2022/07/05 09:11:04;;;;;;;3.40;2.60;;;17.40;99.90;;;;;;5121726;28;20505;-64
2022/07/05 09:13:37;;;;;;;4.30;3.00;;;17.40;99.90;;;;;;5123001;28;20537;-64
2022/07/05 09:16:11;;;;;;;2.80;2.40;;;17.50;99.90;;;;;;5122199;28;20485;-65
2022/07/05 09:18:43;;;;;;;6.37;2.67;;;17.40;99.90;;;;;;5123099;28;20440;-64
2022/07/05 09:21:19;;;;;;;3.40;3.10;;;17.50;99.90;;;;;;5089112;28;20829;-64
2022/07/05 09:23:56;;;;;;;3.30;3.00;;;17.50;99.90;;;;;;5122489;28;20439;-63
2022/07/05 09:26:34;;;;;;;3.70;2.80;;;17.50;99.90;;;;;;5121941;28;20540;-64
2022/07/05 09:29:07;;;;;;;3.17;2.77;;;17.60;99.90;;;;;;5119715;28;20468;-64
2022/07/05 09:31:59;;;;;;;6.63;5.20;;;17.60;99.90;;;;;;5122354;28;21019;-64
2022/07/05 09:34:30;;;;;;;5.20;4.70;;;17.50;99.90;;;;;;5122594;28;20508;-64
2022/07/05 09:37:02;;;;;;;4.60;4.17;;;17.50;99.90;;;;;;5121123;28;20553;-63
2022/07/05 09:39:41;;;;;;;4.60;3.93;;;17.60;99.90;;;;;;5122563;28;20978;-64
2022/07/05 09:42:14;;;;;;;3.53;3.23;;;17.60;99.90;;;;;;5122165;28;20432;-64
2022/07/05 09:44:46;;;;;;;3.57;3.23;;;17.60;99.90;;;;;;5122355;28;20523;-64
2022/07/05 09:47:20;;;;;;;3.53;3.23;;;17.60;99.90;;;;;;5121826;28;20461;-64
2022/07/05 09:49:52;;;;;;;4.47;3.90;;;17.60;99.90;;;;;;5122320;28;20508;-64
2022/07/05 09:52:41;;;;;;;3.63;3.23;;;17.60;99.90;;;;;;5122132;28;20460;-64
2022/07/05 09:55:16;;;;;;;3.97;3.50;;;17.60;99.90;;;;;;5122122;28;20485;-64
2022/07/05 09:57:48;;;;;;;3.80;3.50;;;17.60;99.90;;;;;;5121708;28;20460;-64
2022/07/05 10:00:20;;;;;;;5.80;4.77;;;17.50;99.90;;;;;;5113715;28;20491;-64
2022/07/05 10:02:53;;;;;;;6.07;4.20;;;17.40;99.90;;;;;;5121622;28;20482;-64
2022/07/05 10:05:25;;;;;;;3.37;3.07;;;17.30;99.90;;;;;;5088075;28;20429;-64
2022/07/05 10:07:57;;;;;;;5.77;3.90;;;17.30;99.90;;;;;;5121633;28;20436;-64
2022/07/05 10:10:30;;;;;;;5.13;3.93;;;17.40;99.90;;;;;;5122281;28;20521;-64
2022/07/05 10:13:01;;;;;;;7.30;4.97;;;17.40;99.90;;;;;;5124017;28;20523;-64
2022/07/05 10:15:34;;;;;;;6.07;4.70;;;17.40;99.90;;;;;;5093190;28;20456;-64
2022/07/05 10:18:08;;;;;;;6.07;4.17;;;17.30;99.90;;;;;;5124900;28;20439;-64
2022/07/05 10:20:43;;;;;;;7.20;4.13;;;17.20;99.90;;;;;;5124874;28;20952;-64
2022/07/05 10:23:16;;;;;;;6.90;4.97;;;17.20;99.90;;;;;;5125682;28;20433;-64
2022/07/05 10:25:49;;;;;;;8.10;5.50;;;17.10;99.90;;;;;;5125816;28;20448;-63
2022/07/05 10:28:21;;;;;;;5.70;4.47;;;17.00;99.90;;;;;;5125251;28;20430;-63
2022/07/05 10:30:52;;;;;;;6.57;5.10;;;16.90;99.90;;;;;;5125274;28;20433;-64
2022/07/05 10:33:27;;;;;;;5.47;4.70;;;16.90;99.90;;;;;;5125328;28;20475;-64
2022/07/05 10:35:59;;;;;;;6.93;6.13;;;16.80;99.90;;;;;;5124184;28;20451;-63
2022/07/05 10:38:31;;;;;;;7.10;5.13;;;16.80;99.90;;;;;;5124982;28;20412;-64
2022/07/05 10:41:06;;;;;;;6.47;5.77;;;16.70;99.90;;;;;;5125423;28;20446;-64
2022/07/05 10:43:45;;;;;;;8.10;5.43;;;16.70;99.90;;;;;;5125709;28;20533;-64
2022/07/05 10:46:34;;;;;;;6.83;5.43;;;16.70;99.90;;;;;;5124799;28;20462;-64
2022/07/05 10:49:17;;;;;;;6.27;5.40;;;16.70;99.90;;;;;;5105901;28;20446;-64
2022/07/05 10:51:52;;;;;;;7.67;6.13;;;16.60;99.90;;;;;;5123992;28;20441;-64
2022/07/05 10:54:23;;;;;;;6.90;6.20;;;16.50;99.90;;;;;;5124741;28;20428;-64
2022/07/05 10:57:26;;;;;;;9.80;6.37;;;16.50;99.90;;;;;;5124811;28;20464;-64
2022/07/05 11:00:11;;;;;;;7.60;6.80;;;16.50;99.90;;;;;;5120829;28;20450;-64
2022/07/05 11:02:42;;;;;;;8.20;7.07;;;16.40;99.90;;;;;;5123067;28;20468;-64
2022/07/05 11:05:18;;;;;;;7.40;5.50;;;16.40;99.90;;;;;;5123959;28;20408;-64
2022/07/05 11:08:02;;;;;;;7.93;6.30;;;16.30;99.90;;;;;;5124421;28;20463;-64
2022/07/05 11:10:33;;;;;;;8.83;7.40;;;16.30;99.90;;;;;;5124258;28;20449;-64
2022/07/05 11:13:39;;;;;;;7.30;6.60;;;16.30;99.90;;;;;;5124192;28;20438;-64
2022/07/05 11:16:23;;;;;;;8.70;6.77;;;16.30;99.90;;;;;;5124389;28;20463;-64
2022/07/05 11:18:55;;;;;;;9.33;6.80;;;16.30;99.90;;;;;;5091682;28;20449;-63
2022/07/05 11:21:27;;;;;;;8.90;7.30;;;16.30;99.90;;;;;;5123657;28;20450;-64
2022/07/05 11:24:21;;;;;;;9.93;7.20;;;16.30;99.90;;;;;;5123900;28;20472;-64
2022/07/05 11:26:53;;;;;;;9.20;7.40;;;16.20;99.90;;;;;;5124261;28;20442;-64
2022/07/05 11:29:42;;;;;;;11.30;7.50;;;16.20;99.90;;;;;;5124806;28;20418;-64
2022/07/05 11:32:14;;;;;;;11.27;8.37;;;16.20;99.90;;;;;;5123941;28;20449;-64
2022/07/05 11:34:50;;;;;;;12.60;9.07;;;16.30;99.90;;;;;;5124013;28;20445;-64
2022/07/05 11:37:28;;;;;;;10.70;7.57;;;16.40;99.90;;;;;;5119990;28;20500;-64
2022/07/05 11:40:40;;;;;;;12.77;9.10;;;16.40;99.90;;;;;;5112028;28;20506;-64
2022/07/05 11:43:11;;;;;;;13.30;8.63;;;16.40;99.90;;;;;;5116657;28;20457;-64
2022/07/05 11:45:43;;;;;;;12.70;8.60;;;16.40;99.90;;;;;;5123894;28;20424;-64
2022/07/05 11:48:17;;;;;;;10.73;8.13;;;16.50;99.90;;;;;;5123996;28;20445;-65
2022/07/05 11:50:49;;;;;;;11.57;8.90;;;16.40;99.90;;;;;;5123031;28;20472;-64
2022/07/05 11:53:30;;;;;;;12.37;9.10;;;16.40;99.90;;;;;;5123551;28;20955;-64
2022/07/05 11:56:21;;;;;;;9.57;8.17;;;16.30;99.90;;;;;;5123726;28;20493;-64
2022/07/05 11:58:52;;;;;;;11.90;9.53;;;16.20;99.90;;;;;;5094884;28;20450;-64
2022/07/05 12:01:22;;;;;;;12.00;8.87;;;16.20;99.90;;;;;;5123572;28;20457;-64
2022/07/05 12:03:57;;;;;;;12.10;8.70;;;16.30;99.90;;;;;;5123539;28;20460;-64
2022/07/05 12:06:28;;;;;;;11.63;8.87;;;16.30;99.90;;;;;;5122849;28;20412;-63
2022/07/05 12:09:07;;;;;;;11.90;8.40;;;16.30;99.90;;;;;;5086664;28;20472;-63
2022/07/05 12:14:27;;;;;;;10.27;8.87;;;16.40;99.90;;;;;;5123724;28;20508;-63
2022/07/05 12:17:13;;;;;;;9.50;8.00;;;16.30;99.90;;;;;;5090405;28;20477;-62
2022/07/05 12:19:54;;;;;;;12.33;8.90;;;16.30;99.90;;;;;;5123477;28;20457;-63
2022/07/05 12:22:33;;;;;;;12.67;9.27;;;16.20;99.90;;;;;;5122640;28;20446;-63
2022/07/05 12:25:09;;;;;;;12.10;9.40;;;16.20;99.90;;;;;;5090554;28;20445;-63
2022/07/05 12:27:44;;;;;;;11.33;8.80;;;16.20;99.90;;;;;;5108202;28;20507;-62
2022/07/05 12:30:18;;;;;;;10.63;8.37;;;16.20;99.90;;;;;;5123253;28;20415;-63
2022/07/05 12:32:59;;;;;;;13.17;9.50;;;16.20;99.90;;;;;;5122996;28;20429;-62
2022/07/05 12:35:32;;;;;;;11.80;9.70;;;16.20;99.90;;;;;;5121016;28;20420;-63
2022/07/05 12:38:07;;;;;;;12.60;9.50;;;16.10;99.90;;;;;;5123539;28;20456;-63
2022/07/05 12:40:41;;;;;;;16.33;10.50;;;16.00;99.90;;;;;;5123141;28;20427;-63
2022/07/05 12:43:13;;;;;;;11.60;9.50;;;16.10;99.90;;;;;;5123012;28;20437;-63
2022/07/05 12:45:46;;;;;;;11.60;8.70;;;16.20;99.90;;;;;;5123289;28;20516;-63
2022/07/05 12:48:16;;;;;;;11.10;8.30;;;16.20;99.90;;;;;;5123222;28;20454;-63
2022/07/05 12:50:49;;;;;;;13.53;10.20;;;16.20;99.90;;;;;;5122396;28;20437;-63
2022/07/05 13:00:02;;;;;;;13.10;9.43;;;16.30;99.90;;;;;;5109385;28;20463;-63
2022/07/05 13:02:38;;;;;;;14.60;10.10;;;16.20;99.90;;;;;;5122952;28;20452;-63
2022/07/05 13:05:11;;;;;;;15.90;10.13;;;16.20;99.90;;;;;;5122353;28;20515;-63
2022/07/05 13:07:51;;;;;;;13.23;9.80;;;16.20;99.90;;;;;;5123022;28;20477;-63
2022/07/05 13:10:25;;;;;;;13.17;10.13;;;16.20;99.90;;;;;;5122177;28;20427;-65
2022/07/05 13:12:57;;;;;;;11.93;9.30;;;16.30;99.90;;;;;;5123204;28;20451;-63
2022/07/05 13:15:28;;;;;;;13.47;10.37;;;16.30;99.90;;;;;;5122508;28;20456;-62
2022/07/05 13:17:59;;;;;;;11.57;9.80;;;16.30;99.90;;;;;;5122733;28;20481;-62
2022/07/05 13:20:30;;;;;;;11.80;8.73;;;16.40;99.90;;;;;;5121742;28;20454;-63
2022/07/05 13:23:00;;;;;;;12.50;8.77;;;16.40;99.90;;;;;;5122469;28;20457;-63
2022/07/05 13:25:31;;;;;;;11.10;8.60;;;16.40;99.90;;;;;;5122670;28;20916;-63
2022/07/05 13:28:04;;;;;;;9.70;8.70;;;16.50;99.90;;;;;;5123014;28;20449;-63